sensor_id;sensor_type;location;lat;lon;timestamp;temperature;humidity
52211;DHT22;38179;52.756;6.906;2023-04-04T00:01:03;2.80;99.90
52211;DHT22;38179;52.756;6.906;2023-04-04T00:03:29;2.80;99.90
52211;DHT22;38179;52.756;6.906;2023-04-04T00:05:56;2.80;99.90
52211;DHT22;38179;52.756;6.906;2023-04-04T00:08:21;2.80;99.90
52211;DHT22;38179;52.756;6.906;2023-04-04T00:10:47;2.80;99.90
52211;DHT22;38179;52.756;6.906;2023-04-04T00:13:13;2.70;99.90
52211;DHT22;38179;52.756;6.906;2023-04-04T00:15:38;2.70;99.90
52211;DHT22;38179;52.756;6.906;2023-04-04T00:18:04;2.70;99.90
52211;DHT22;38179;52.756;6.906;2023-04-04T00:20:30;2.70;99.90
52211;DHT22;38179;52.756;6.906;2023-04-04T00:22:56;2.60;99.90
52211;DHT22;38179;52.756;6.906;2023-04-04T00:25:22;2.60;99.90
52211;DHT22;38179;52.756;6.906;2023-04-04T00:27:48;2.60;99.90
52211;DHT22;38179;52.756;6.906;2023-04-04T00:30:13;2.60;99.90
52211;DHT22;38179;52.756;6.906;2023-04-04T00:32:43;2.60;99.90
52211;DHT22;38179;52.756;6.906;2023-04-04T00:35:08;2.60;99.90
52211;DHT22;38179;52.756;6.906;2023-04-04T00:37:34;2.50;99.90
52211;DHT22;38179;52.756;6.906;2023-04-04T00:40:00;2.50;99.90
52211;DHT22;38179;52.756;6.906;2023-04-04T00:42:26;2.40;99.90
52211;DHT22;38179;52.756;6.906;2023-04-04T00:44:52;2.40;99.90
52211;DHT22;38179;52.756;6.906;2023-04-04T00:47:19;2.40;99.90
52211;DHT22;38179;52.756;6.906;2023-04-04T00:49:46;2.40;99.90
52211;DHT22;38179;52.756;6.906;2023-04-04T00:52:12;2.30;99.90
52211;DHT22;38179;52.756;6.906;2023-04-04T00:54:38;2.30;99.90
52211;DHT22;38179;52.756;6.906;2023-04-04T00:57:03;2.20;99.90
52211;DHT22;38179;52.756;6.906;2023-04-04T00:59:31;2.30;99.90
52211;DHT22;38179;52.756;6.906;2023-04-04T01:01:57;2.20;99.90
52211;DHT22;38179;52.756;6.906;2023-04-04T01:04:24;2.20;99.90
52211;DHT22;38179;52.756;6.906;2023-04-04T01:06:50;2.20;99.90
52211;DHT22;38179;52.756;6.906;2023-04-04T01:09:16;2.10;99.90
52211;DHT22;38179;52.756;6.906;2023-04-04T01:11:42;2.10;99.90
52211;DHT22;38179;52.756;6.906;2023-04-04T01:14:08;2.10;99.90
52211;DHT22;38179;52.756;6.906;2023-04-04T01:16:34;2.10;99.90
52211;DHT22;38179;52.756;6.906;2023-04-04T01:19:00;2.00;99.90
52211;DHT22;38179;52.756;6.906;2023-04-04T01:21:26;2.00;99.90
52211;DHT22;38179;52.756;6.906;2023-04-04T01:26:22;1.90;99.90
52211;DHT22;38179;52.756;6.906;2023-04-04T01:28:48;1.90;99.90
52211;DHT22;38179;52.756;6.906;2023-04-04T01:31:14;1.90;99.90
52211;DHT22;38179;52.756;6.906;2023-04-04T01:33:44;1.90;99.90
52211;DHT22;38179;52.756;6.906;2023-04-04T01:41:09;1.80;99.90
52211;DHT22;38179;52.756;6.906;2023-04-04T01:43:36;1.70;99.90
52211;DHT22;38179;52.756;6.906;2023-04-04T01:46:02;1.60;99.90
52211;DHT22;38179;52.756;6.906;2023-04-04T01:48:28;1.60;99.90
52211;DHT22;38179;52.756;6.906;2023-04-04T01:50:54;1.60;99.90
52211;DHT22;38179;52.756;6.906;2023-04-04T01:53:20;1.60;99.90
52211;DHT22;38179;52.756;6.906;2023-04-04T01:55:46;1.50;99.90
52211;DHT22;38179;52.756;6.906;2023-04-04T01:58:12;1.50;99.90
52211;DHT22;38179;52.756;6.906;2023-04-04T02:00:37;1.50;99.90
52211;DHT22;38179;52.756;6.906;2023-04-04T02:03:03;1.60;99.90
52211;DHT22;38179;52.756;6.906;2023-04-04T02:05:29;1.50;99.90
52211;DHT22;38179;52.756;6.906;2023-04-04T02:07:55;1.60;99.90
52211;DHT22;38179;52.756;6.906;2023-04-04T02:10:20;1.60;99.90
52211;DHT22;38179;52.756;6.906;2023-04-04T02:12:46;1.60;99.90
52211;DHT22;38179;52.756;6.906;2023-04-04T02:15:12;1.60;99.90
52211;DHT22;38179;52.756;6.906;2023-04-04T02:17:38;1.60;99.90
52211;DHT22;38179;52.756;6.906;2023-04-04T02:20:04;1.60;99.90
52211;DHT22;38179;52.756;6.906;2023-04-04T02:22:30;1.60;99.90
52211;DHT22;38179;52.756;6.906;2023-04-04T02:24:56;1.60;99.90
52211;DHT22;38179;52.756;6.906;2023-04-04T02:27:27;1.60;99.90
52211;DHT22;38179;52.756;6.906;2023-04-04T02:29:53;1.60;99.90
52211;DHT22;38179;52.756;6.906;2023-04-04T02:32:19;1.50;99.90
52211;DHT22;38179;52.756;6.906;2023-04-04T02:34:45;1.50;99.90
52211;DHT22;38179;52.756;6.906;2023-04-04T02:37:12;1.50;99.90
52211;DHT22;38179;52.756;6.906;2023-04-04T02:39:37;1.50;99.90
52211;DHT22;38179;52.756;6.906;2023-04-04T02:42:03;1.40;99.90
52211;DHT22;38179;52.756;6.906;2023-04-04T02:44:29;1.40;99.90
52211;DHT22;38179;52.756;6.906;2023-04-04T02:46:54;1.40;99.90
52211;DHT22;38179;52.756;6.906;2023-04-04T02:49:20;1.40;99.90
52211;DHT22;38179;52.756;6.906;2023-04-04T02:51:46;1.40;99.90
52211;DHT22;38179;52.756;6.906;2023-04-04T02:54:12;1.30;99.90
52211;DHT22;38179;52.756;6.906;2023-04-04T02:56:37;1.30;99.90
52211;DHT22;38179;52.756;6.906;2023-04-04T02:59:03;1.30;99.90
52211;DHT22;38179;52.756;6.906;2023-04-04T03:01:29;1.20;99.90
52211;DHT22;38179;52.756;6.906;2023-04-04T03:03:55;1.20;99.90
52211;DHT22;38179;52.756;6.906;2023-04-04T03:06:21;1.20;99.90
52211;DHT22;38179;52.756;6.906;2023-04-04T03:08:47;1.20;99.90
52211;DHT22;38179;52.756;6.906;2023-04-04T03:11:16;1.20;99.90
52211;DHT22;38179;52.756;6.906;2023-04-04T03:13:42;1.10;99.90
52211;DHT22;38179;52.756;6.906;2023-04-04T03:16:09;1.20;99.90
52211;DHT22;38179;52.756;6.906;2023-04-04T03:18:35;1.10;99.90
52211;DHT22;38179;52.756;6.906;2023-04-04T03:21:00;1.10;99.90
52211;DHT22;38179;52.756;6.906;2023-04-04T03:23:26;1.10;99.90
52211;DHT22;38179;52.756;6.906;2023-04-04T03:25:52;1.00;99.90
52211;DHT22;38179;52.756;6.906;2023-04-04T03:28:19;1.00;99.90
52211;DHT22;38179;52.756;6.906;2023-04-04T03:30:45;1.00;99.90
52211;DHT22;38179;52.756;6.906;2023-04-04T03:33:10;1.00;99.90
52211;DHT22;38179;52.756;6.906;2023-04-04T03:35:37;0.90;99.90
52211;DHT22;38179;52.756;6.906;2023-04-04T03:38:02;0.90;99.90
52211;DHT22;38179;52.756;6.906;2023-04-04T03:40:28;0.80;99.90
52211;DHT22;38179;52.756;6.906;2023-04-04T03:42:54;0.70;99.90
52211;DHT22;38179;52.756;6.906;2023-04-04T03:45:20;0.70;99.90
52211;DHT22;38179;52.756;6.906;2023-04-04T03:47:47;0.70;99.90
52211;DHT22;38179;52.756;6.906;2023-04-04T03:50:12;0.70;99.90
52211;DHT22;38179;52.756;6.906;2023-04-04T03:52:38;0.70;99.90
52211;DHT22;38179;52.756;6.906;2023-04-04T03:55:04;0.60;99.90
52211;DHT22;38179;52.756;6.906;2023-04-04T03:57:31;0.60;99.90
52211;DHT22;38179;52.756;6.906;2023-04-04T03:59:57;0.60;99.90
52211;DHT22;38179;52.756;6.906;2023-04-04T04:02:23;0.60;99.90
52211;DHT22;38179;52.756;6.906;2023-04-04T04:04:49;0.60;99.90
52211;DHT22;38179;52.756;6.906;2023-04-04T04:07:18;0.60;99.90
52211;DHT22;38179;52.756;6.906;2023-04-04T04:09:43;0.50;99.90
52211;DHT22;38179;52.756;6.906;2023-04-04T04:12:09;0.60;99.90
52211;DHT22;38179;52.756;6.906;2023-04-04T04:14:35;0.50;99.90
52211;DHT22;38179;52.756;6.906;2023-04-04T04:17:00;0.50;99.90
52211;DHT22;38179;52.756;6.906;2023-04-04T04:19:26;0.50;99.90
52211;DHT22;38179;52.756;6.906;2023-04-04T04:21:52;0.50;99.90
52211;DHT22;38179;52.756;6.906;2023-04-04T04:24:18;0.50;99.90
52211;DHT22;38179;52.756;6.906;2023-04-04T04:26:43;0.40;99.90
52211;DHT22;38179;52.756;6.906;2023-04-04T04:29:09;0.50;99.90
52211;DHT22;38179;52.756;6.906;2023-04-04T04:31:36;0.50;99.90
52211;DHT22;38179;52.756;6.906;2023-04-04T04:34:03;0.40;99.90
52211;DHT22;38179;52.756;6.906;2023-04-04T04:36:29;0.40;99.90
52211;DHT22;38179;52.756;6.906;2023-04-04T04:38:55;0.40;99.90
52211;DHT22;38179;52.756;6.906;2023-04-04T04:41:20;0.30;99.90
52211;DHT22;38179;52.756;6.906;2023-04-04T04:43:46;0.30;99.90
52211;DHT22;38179;52.756;6.906;2023-04-04T04:46:12;0.30;99.90
52211;DHT22;38179;52.756;6.906;2023-04-04T04:48:39;0.30;99.90
52211;DHT22;38179;52.756;6.906;2023-04-04T04:51:04;0.30;99.90
52211;DHT22;38179;52.756;6.906;2023-04-04T04:53:30;0.30;99.90
52211;DHT22;38179;52.756;6.906;2023-04-04T04:55:56;0.30;99.90
52211;DHT22;38179;52.756;6.906;2023-04-04T04:58:22;0.20;99.90
52211;DHT22;38179;52.756;6.906;2023-04-04T05:00:48;0.30;99.90
52211;DHT22;38179;52.756;6.906;2023-04-04T05:03:14;0.30;99.90
52211;DHT22;38179;52.756;6.906;2023-04-04T05:05:43;0.30;99.90
52211;DHT22;38179;52.756;6.906;2023-04-04T05:08:08;0.30;99.90
52211;DHT22;38179;52.756;6.906;2023-04-04T05:10:34;0.30;99.90
52211;DHT22;38179;52.756;6.906;2023-04-04T05:13:00;0.30;99.90
52211;DHT22;38179;52.756;6.906;2023-04-04T05:15:25;0.30;99.90
52211;DHT22;38179;52.756;6.906;2023-04-04T05:17:53;0.30;99.90
52211;DHT22;38179;52.756;6.906;2023-04-04T05:20:19;0.40;99.90
52211;DHT22;38179;52.756;6.906;2023-04-04T05:22:45;0.30;99.90
52211;DHT22;38179;52.756;6.906;2023-04-04T05:25:11;0.40;99.90
52211;DHT22;38179;52.756;6.906;2023-04-04T05:27:43;0.40;99.90
52211;DHT22;38179;52.756;6.906;2023-04-04T05:30:11;0.40;99.90
52211;DHT22;38179;52.756;6.906;2023-04-04T05:32:37;0.30;99.90
52211;DHT22;38179;52.756;6.906;2023-04-04T05:35:03;0.30;99.90
52211;DHT22;38179;52.756;6.906;2023-04-04T05:37:29;0.30;99.90
52211;DHT22;38179;52.756;6.906;2023-04-04T05:39:55;0.40;99.90
52211;DHT22;38179;52.756;6.906;2023-04-04T05:42:21;0.40;99.90
52211;DHT22;38179;52.756;6.906;2023-04-04T05:44:47;0.40;99.90
52211;DHT22;38179;52.756;6.906;2023-04-04T05:47:12;0.50;99.90
52211;DHT22;38179;52.756;6.906;2023-04-04T05:49:38;0.50;99.90
52211;DHT22;38179;52.756;6.906;2023-04-04T05:52:04;0.50;99.90
52211;DHT22;38179;52.756;6.906;2023-04-04T05:54:30;0.50;99.90
52211;DHT22;38179;52.756;6.906;2023-04-04T05:56:55;0.50;99.90
52211;DHT22;38179;52.756;6.906;2023-04-04T05:59:21;0.60;99.90
52211;DHT22;38179;52.756;6.906;2023-04-04T06:01:47;0.60;99.90
52211;DHT22;38179;52.756;6.906;2023-04-04T06:04:12;0.70;99.90
52211;DHT22;38179;52.756;6.906;2023-04-04T06:06:38;0.80;99.90
52211;DHT22;38179;52.756;6.906;2023-04-04T06:09:04;0.80;99.90
52211;DHT22;38179;52.756;6.906;2023-04-04T06:11:30;0.90;99.90
52211;DHT22;38179;52.756;6.906;2023-04-04T06:13:56;0.90;99.90
52211;DHT22;38179;52.756;6.906;2023-04-04T06:16:22;1.00;99.90
52211;DHT22;38179;52.756;6.906;2023-04-04T06:18:48;1.00;99.90
52211;DHT22;38179;52.756;6.906;2023-04-04T06:21:13;1.10;99.90
52211;DHT22;38179;52.756;6.906;2023-04-04T06:23:39;1.20;99.90
52211;DHT22;38179;52.756;6.906;2023-04-04T06:26:05;1.30;99.90
52211;DHT22;38179;52.756;6.906;2023-04-04T06:28:31;1.30;99.90
52211;DHT22;38179;52.756;6.906;2023-04-04T06:30:57;1.40;99.90
52211;DHT22;38179;52.756;6.906;2023-04-04T06:33:23;1.40;99.90
52211;DHT22;38179;52.756;6.906;2023-04-04T06:35:49;1.50;99.90
52211;DHT22;38179;52.756;6.906;2023-04-04T06:38:14;1.50;99.90
52211;DHT22;38179;52.756;6.906;2023-04-04T06:40:40;1.50;99.90
52211;DHT22;38179;52.756;6.906;2023-04-04T06:43:06;1.60;99.90
52211;DHT22;38179;52.756;6.906;2023-04-04T06:45:32;1.60;99.90
52211;DHT22;38179;52.756;6.906;2023-04-04T06:48:00;1.70;99.90
52211;DHT22;38179;52.756;6.906;2023-04-04T06:50:28;1.70;99.90
52211;DHT22;38179;52.756;6.906;2023-04-04T06:52:55;1.70;99.90
52211;DHT22;38179;52.756;6.906;2023-04-04T06:55:21;1.80;99.90
52211;DHT22;38179;52.756;6.906;2023-04-04T06:57:47;1.80;99.90
52211;DHT22;38179;52.756;6.906;2023-04-04T07:00:13;1.80;99.90
52211;DHT22;38179;52.756;6.906;2023-04-04T07:02:40;1.80;99.90
52211;DHT22;38179;52.756;6.906;2023-04-04T07:05:05;1.80;99.90
52211;DHT22;38179;52.756;6.906;2023-04-04T07:07:31;1.80;99.90
52211;DHT22;38179;52.756;6.906;2023-04-04T07:09:57;1.80;99.90
52211;DHT22;38179;52.756;6.906;2023-04-04T07:12:23;1.80;99.90
52211;DHT22;38179;52.756;6.906;2023-04-04T07:14:49;1.90;99.90
52211;DHT22;38179;52.756;6.906;2023-04-04T07:17:14;1.90;99.90
52211;DHT22;38179;52.756;6.906;2023-04-04T07:19:40;1.90;99.90
52211;DHT22;38179;52.756;6.906;2023-04-04T07:22:06;1.90;99.90
52211;DHT22;38179;52.756;6.906;2023-04-04T07:24:32;2.00;99.90
52211;DHT22;38179;52.756;6.906;2023-04-04T07:26:57;2.00;99.90
52211;DHT22;38179;52.756;6.906;2023-04-04T07:29:23;2.00;99.90
52211;DHT22;38179;52.756;6.906;2023-04-04T07:31:49;2.10;99.90
52211;DHT22;38179;52.756;6.906;2023-04-04T07:34:15;2.10;99.90
52211;DHT22;38179;52.756;6.906;2023-04-04T07:36:41;2.10;99.90
52211;DHT22;38179;52.756;6.906;2023-04-04T07:39:07;2.20;99.90
52211;DHT22;38179;52.756;6.906;2023-04-04T07:41:33;2.20;99.90
52211;DHT22;38179;52.756;6.906;2023-04-04T07:43:58;2.30;99.90
52211;DHT22;38179;52.756;6.906;2023-04-04T07:46:24;2.30;99.90
52211;DHT22;38179;52.756;6.906;2023-04-04T07:48:52;2.40;99.90
52211;DHT22;38179;52.756;6.906;2023-04-04T07:51:18;2.40;99.90
52211;DHT22;38179;52.756;6.906;2023-04-04T07:53:48;2.50;99.90
52211;DHT22;38179;52.756;6.906;2023-04-04T07:56:14;2.60;99.90
52211;DHT22;38179;52.756;6.906;2023-04-04T07:58:39;2.60;99.90
52211;DHT22;38179;52.756;6.906;2023-04-04T08:01:05;2.70;99.90
52211;DHT22;38179;52.756;6.906;2023-04-04T08:03:31;2.70;99.90
52211;DHT22;38179;52.756;6.906;2023-04-04T08:05:57;2.80;99.90
52211;DHT22;38179;52.756;6.906;2023-04-04T08:08:23;2.80;99.90
52211;DHT22;38179;52.756;6.906;2023-04-04T08:10:48;2.90;99.90
52211;DHT22;38179;52.756;6.906;2023-04-04T08:13:14;2.90;99.90
52211;DHT22;38179;52.756;6.906;2023-04-04T08:15:40;3.00;99.90
52211;DHT22;38179;52.756;6.906;2023-04-04T08:18:06;3.10;99.90
52211;DHT22;38179;52.756;6.906;2023-04-04T08:20:32;3.10;99.90
52211;DHT22;38179;52.756;6.906;2023-04-04T08:22:58;3.10;99.90
52211;DHT22;38179;52.756;6.906;2023-04-04T08:25:24;3.20;99.90
52211;DHT22;38179;52.756;6.906;2023-04-04T08:27:49;3.20;99.90
52211;DHT22;38179;52.756;6.906;2023-04-04T08:30:15;3.30;99.90
52211;DHT22;38179;52.756;6.906;2023-04-04T08:32:41;3.40;99.90
52211;DHT22;38179;52.756;6.906;2023-04-04T08:35:08;3.50;99.90
52211;DHT22;38179;52.756;6.906;2023-04-04T08:37:34;3.50;99.90
52211;DHT22;38179;52.756;6.906;2023-04-04T08:40:04;3.60;99.90
52211;DHT22;38179;52.756;6.906;2023-04-04T08:42:31;3.60;99.90
52211;DHT22;38179;52.756;6.906;2023-04-04T08:44:58;3.80;99.90
52211;DHT22;38179;52.756;6.906;2023-04-04T08:47:25;3.90;99.90
52211;DHT22;38179;52.756;6.906;2023-04-04T08:49:51;4.00;99.90
52211;DHT22;38179;52.756;6.906;2023-04-04T08:52:17;4.10;99.90
52211;DHT22;38179;52.756;6.906;2023-04-04T08:54:45;4.10;99.90
52211;DHT22;38179;52.756;6.906;2023-04-04T08:57:11;4.20;99.90
52211;DHT22;38179;52.756;6.906;2023-04-04T08:59:38;4.20;99.90
52211;DHT22;38179;52.756;6.906;2023-04-04T09:02:13;4.20;99.90
52211;DHT22;38179;52.756;6.906;2023-04-04T09:04:40;4.30;99.90
52211;DHT22;38179;52.756;6.906;2023-04-04T09:07:07;4.40;99.90
52211;DHT22;38179;52.756;6.906;2023-04-04T09:09:34;4.40;99.90
52211;DHT22;38179;52.756;6.906;2023-04-04T09:12:02;4.50;99.90
52211;DHT22;38179;52.756;6.906;2023-04-04T09:14:29;4.70;99.90
52211;DHT22;38179;52.756;6.906;2023-04-04T09:16:55;4.80;99.90
52211;DHT22;38179;52.756;6.906;2023-04-04T09:19:21;4.80;99.90
52211;DHT22;38179;52.756;6.906;2023-04-04T09:21:47;4.70;99.90
52211;DHT22;38179;52.756;6.906;2023-04-04T09:24:13;4.80;99.90
52211;DHT22;38179;52.756;6.906;2023-04-04T09:26:48;4.90;99.90
52211;DHT22;38179;52.756;6.906;2023-04-04T09:29:21;5.00;99.90
52211;DHT22;38179;52.756;6.906;2023-04-04T09:31:47;5.00;99.90
52211;DHT22;38179;52.756;6.906;2023-04-04T09:34:14;5.10;99.90
52211;DHT22;38179;52.756;6.906;2023-04-04T09:36:41;5.10;99.90
52211;DHT22;38179;52.756;6.906;2023-04-04T09:39:08;5.20;99.90
52211;DHT22;38179;52.756;6.906;2023-04-04T09:41:36;5.20;99.90
52211;DHT22;38179;52.756;6.906;2023-04-04T09:44:02;5.30;99.90
52211;DHT22;38179;52.756;6.906;2023-04-04T09:46:28;5.30;99.90
52211;DHT22;38179;52.756;6.906;2023-04-04T09:48:54;5.40;99.90
52211;DHT22;38179;52.756;6.906;2023-04-04T09:51:20;5.40;99.90
52211;DHT22;38179;52.756;6.906;2023-04-04T09:53:46;5.50;99.90
52211;DHT22;38179;52.756;6.906;2023-04-04T09:56:12;5.50;99.90
52211;DHT22;38179;52.756;6.906;2023-04-04T09:58:38;5.50;99.90
52211;DHT22;38179;52.756;6.906;2023-04-04T10:01:08;5.50;99.90
52211;DHT22;38179;52.756;6.906;2023-04-04T10:03:36;5.60;99.90
52211;DHT22;38179;52.756;6.906;2023-04-04T10:06:04;5.60;99.90
52211;DHT22;38179;52.756;6.906;2023-04-04T10:08:30;5.70;99.90
52211;DHT22;38179;52.756;6.906;2023-04-04T10:11:00;5.80;99.90
52211;DHT22;38179;52.756;6.906;2023-04-04T10:13:26;5.80;99.90
52211;DHT22;38179;52.756;6.906;2023-04-04T10:15:56;5.90;99.90
52211;DHT22;38179;52.756;6.906;2023-04-04T10:18:23;5.90;99.90
52211;DHT22;38179;52.756;6.906;2023-04-04T10:20:49;5.90;99.90
52211;DHT22;38179;52.756;6.906;2023-04-04T10:23:15;6.00;99.90
52211;DHT22;38179;52.756;6.906;2023-04-04T10:25:42;6.00;99.90
52211;DHT22;38179;52.756;6.906;2023-04-04T10:28:07;6.10;99.90
52211;DHT22;38179;52.756;6.906;2023-04-04T10:30:38;6.20;99.90
52211;DHT22;38179;52.756;6.906;2023-04-04T10:33:14;6.20;99.90
52211;DHT22;38179;52.756;6.906;2023-04-04T10:35:43;6.20;99.90
52211;DHT22;38179;52.756;6.906;2023-04-04T10:38:10;6.30;99.90
52211;DHT22;38179;52.756;6.906;2023-04-04T10:40:36;6.30;99.90
52211;DHT22;38179;52.756;6.906;2023-04-04T10:43:04;6.30;99.90
52211;DHT22;38179;52.756;6.906;2023-04-04T10:45:31;6.30;99.90
52211;DHT22;38179;52.756;6.906;2023-04-04T10:47:57;6.40;99.90
52211;DHT22;38179;52.756;6.906;2023-04-04T10:50:24;6.50;99.90
52211;DHT22;38179;52.756;6.906;2023-04-04T10:52:50;6.60;99.90
52211;DHT22;38179;52.756;6.906;2023-04-04T10:55:17;6.60;99.90
52211;DHT22;38179;52.756;6.906;2023-04-04T10:57:44;6.70;99.90
52211;DHT22;38179;52.756;6.906;2023-04-04T11:00:12;6.70;99.90
52211;DHT22;38179;52.756;6.906;2023-04-04T11:07:47;6.80;99.90
52211;DHT22;38179;52.756;6.906;2023-04-04T11:10:14;6.90;99.90
52211;DHT22;38179;52.756;6.906;2023-04-04T11:12:42;6.90;99.90
52211;DHT22;38179;52.756;6.906;2023-04-04T11:15:10;7.00;99.90
52211;DHT22;38179;52.756;6.906;2023-04-04T11:20:13;7.00;99.90
52211;DHT22;38179;52.756;6.906;2023-04-04T11:22:40;7.00;99.90
52211;DHT22;38179;52.756;6.906;2023-04-04T11:27:53;7.10;99.90
52211;DHT22;38179;52.756;6.906;2023-04-04T11:30:20;7.20;99.90
52211;DHT22;38179;52.756;6.906;2023-04-04T11:32:47;7.20;99.90
52211;DHT22;38179;52.756;6.906;2023-04-04T11:35:13;7.30;99.90
52211;DHT22;38179;52.756;6.906;2023-04-04T11:37:43;7.30;99.90
52211;DHT22;38179;52.756;6.906;2023-04-04T11:40:09;7.40;99.90
52211;DHT22;38179;52.756;6.906;2023-04-04T11:42:37;7.40;99.90
52211;DHT22;38179;52.756;6.906;2023-04-04T11:45:05;7.40;99.90
52211;DHT22;38179;52.756;6.906;2023-04-04T11:47:32;7.40;99.90
52211;DHT22;38179;52.756;6.906;2023-04-04T11:50:00;7.50;99.90
52211;DHT22;38179;52.756;6.906;2023-04-04T11:52:33;7.50;99.90
52211;DHT22;38179;52.756;6.906;2023-04-04T11:55:12;7.50;99.90
52211;DHT22;38179;52.756;6.906;2023-04-04T11:57:40;7.40;99.90
52211;DHT22;38179;52.756;6.906;2023-04-04T12:00:06;7.60;99.90
52211;DHT22;38179;52.756;6.906;2023-04-04T12:02:33;7.50;99.90
52211;DHT22;38179;52.756;6.906;2023-04-04T12:04:59;7.40;99.90
52211;DHT22;38179;52.756;6.906;2023-04-04T12:07:27;7.40;99.90
52211;DHT22;38179;52.756;6.906;2023-04-04T12:09:53;7.40;99.90
52211;DHT22;38179;52.756;6.906;2023-04-04T12:12:20;7.50;99.90
52211;DHT22;38179;52.756;6.906;2023-04-04T12:14:46;7.50;99.90
52211;DHT22;38179;52.756;6.906;2023-04-04T12:17:12;7.60;99.90
52211;DHT22;38179;52.756;6.906;2023-04-04T12:19:40;7.70;99.90
52211;DHT22;38179;52.756;6.906;2023-04-04T12:22:06;7.70;99.90
52211;DHT22;38179;52.756;6.906;2023-04-04T12:24:34;7.90;99.90
52211;DHT22;38179;52.756;6.906;2023-04-04T12:27:03;7.90;99.90
52211;DHT22;38179;52.756;6.906;2023-04-04T12:29:31;7.90;99.90
52211;DHT22;38179;52.756;6.906;2023-04-04T12:32:03;8.00;99.90
52211;DHT22;38179;52.756;6.906;2023-04-04T12:34:31;8.10;99.90
52211;DHT22;38179;52.756;6.906;2023-04-04T12:36:57;8.20;99.90
52211;DHT22;38179;52.756;6.906;2023-04-04T12:39:27;8.30;99.90
52211;DHT22;38179;52.756;6.906;2023-04-04T12:41:54;8.50;99.90
52211;DHT22;38179;52.756;6.906;2023-04-04T12:44:35;8.50;99.90
52211;DHT22;38179;52.756;6.906;2023-04-04T12:47:01;8.60;99.90
52211;DHT22;38179;52.756;6.906;2023-04-04T12:49:29;8.50;99.90
52211;DHT22;38179;52.756;6.906;2023-04-04T12:51:55;8.60;99.90
52211;DHT22;38179;52.756;6.906;2023-04-04T12:54:27;8.60;99.90
52211;DHT22;38179;52.756;6.906;2023-04-04T12:56:54;8.70;99.90
52211;DHT22;38179;52.756;6.906;2023-04-04T12:59:21;8.70;99.90
52211;DHT22;38179;52.756;6.906;2023-04-04T13:01:49;8.80;99.90
52211;DHT22;38179;52.756;6.906;2023-04-04T13:04:16;8.90;99.90
52211;DHT22;38179;52.756;6.906;2023-04-04T13:06:45;8.90;99.90
52211;DHT22;38179;52.756;6.906;2023-04-04T13:09:17;8.70;99.90
52211;DHT22;38179;52.756;6.906;2023-04-04T13:12:02;8.60;99.90
52211;DHT22;38179;52.756;6.906;2023-04-04T13:17:13;8.50;99.90
52211;DHT22;38179;52.756;6.906;2023-04-04T13:19:38;8.60;99.90
52211;DHT22;38179;52.756;6.906;2023-04-04T13:22:07;8.50;99.90
52211;DHT22;38179;52.756;6.906;2023-04-04T13:24:33;8.50;99.90
52211;DHT22;38179;52.756;6.906;2023-04-04T13:26:59;8.60;99.90
52211;DHT22;38179;52.756;6.906;2023-04-04T13:29:25;8.70;99.90
52211;DHT22;38179;52.756;6.906;2023-04-04T13:31:52;8.80;99.90
52211;DHT22;38179;52.756;6.906;2023-04-04T13:34:20;8.80;99.90
52211;DHT22;38179;52.756;6.906;2023-04-04T13:36:46;8.80;99.90
52211;DHT22;38179;52.756;6.906;2023-04-04T13:39:11;8.90;99.90
52211;DHT22;38179;52.756;6.906;2023-04-04T13:41:37;8.80;98.80
52211;DHT22;38179;52.756;6.906;2023-04-04T13:44:03;8.90;99.90
52211;DHT22;38179;52.756;6.906;2023-04-04T13:46:29;8.90;99.90
52211;DHT22;38179;52.756;6.906;2023-04-04T13:48:54;8.90;99.90
52211;DHT22;38179;52.756;6.906;2023-04-04T13:51:20;8.90;99.90
52211;DHT22;38179;52.756;6.906;2023-04-04T13:53:46;8.90;99.90
52211;DHT22;38179;52.756;6.906;2023-04-04T13:56:13;9.00;99.90
52211;DHT22;38179;52.756;6.906;2023-04-04T13:58:39;9.00;99.90
52211;DHT22;38179;52.756;6.906;2023-04-04T14:01:04;9.10;99.90
52211;DHT22;38179;52.756;6.906;2023-04-04T14:03:31;9.20;99.90
52211;DHT22;38179;52.756;6.906;2023-04-04T14:05:56;9.20;99.90
52211;DHT22;38179;52.756;6.906;2023-04-04T14:08:22;9.20;99.90
52211;DHT22;38179;52.756;6.906;2023-04-04T14:10:48;9.20;99.90
52211;DHT22;38179;52.756;6.906;2023-04-04T14:13:13;9.40;99.90
52211;DHT22;38179;52.756;6.906;2023-04-04T14:15:40;9.50;99.90
52211;DHT22;38179;52.756;6.906;2023-04-04T14:18:06;9.50;99.90
52211;DHT22;38179;52.756;6.906;2023-04-04T14:20:32;9.50;99.90
52211;DHT22;38179;52.756;6.906;2023-04-04T14:22:57;9.50;99.90
52211;DHT22;38179;52.756;6.906;2023-04-04T14:25:23;9.40;99.90
52211;DHT22;38179;52.756;6.906;2023-04-04T14:27:49;9.50;99.90
52211;DHT22;38179;52.756;6.906;2023-04-04T14:30:15;9.50;99.90
52211;DHT22;38179;52.756;6.906;2023-04-04T14:32:41;9.60;99.90
52211;DHT22;38179;52.756;6.906;2023-04-04T14:35:07;9.60;99.90
52211;DHT22;38179;52.756;6.906;2023-04-04T14:37:33;9.70;99.90
52211;DHT22;38179;52.756;6.906;2023-04-04T14:39:59;9.70;99.90
52211;DHT22;38179;52.756;6.906;2023-04-04T14:42:25;9.80;99.90
52211;DHT22;38179;52.756;6.906;2023-04-04T14:44:53;9.80;99.90
52211;DHT22;38179;52.756;6.906;2023-04-04T14:47:19;9.70;99.90
52211;DHT22;38179;52.756;6.906;2023-04-04T14:49:45;9.80;99.90
52211;DHT22;38179;52.756;6.906;2023-04-04T14:52:10;9.80;99.90
52211;DHT22;38179;52.756;6.906;2023-04-04T14:54:36;9.60;99.90
52211;DHT22;38179;52.756;6.906;2023-04-04T14:57:02;9.60;99.90
52211;DHT22;38179;52.756;6.906;2023-04-04T14:59:31;9.70;99.90
52211;DHT22;38179;52.756;6.906;2023-04-04T15:01:57;9.80;99.90
52211;DHT22;38179;52.756;6.906;2023-04-04T15:04:23;9.80;99.90
52211;DHT22;38179;52.756;6.906;2023-04-04T15:06:48;9.70;99.90
52211;DHT22;38179;52.756;6.906;2023-04-04T15:09:14;9.80;99.90
52211;DHT22;38179;52.756;6.906;2023-04-04T15:11:40;9.70;99.70
52211;DHT22;38179;52.756;6.906;2023-04-04T15:14:06;9.70;99.90
52211;DHT22;38179;52.756;6.906;2023-04-04T15:16:32;9.80;99.90
52211;DHT22;38179;52.756;6.906;2023-04-04T15:18:59;9.70;99.90
52211;DHT22;38179;52.756;6.906;2023-04-04T15:21:26;9.90;99.90
52211;DHT22;38179;52.756;6.906;2023-04-04T15:23:52;11.10;99.90
52211;DHT22;38179;52.756;6.906;2023-04-04T15:26:18;9.90;99.90
52211;DHT22;38179;52.756;6.906;2023-04-04T15:28:43;9.80;99.90
52211;DHT22;38179;52.756;6.906;2023-04-04T15:31:09;9.80;99.90
52211;DHT22;38179;52.756;6.906;2023-04-04T15:33:38;9.80;99.90
52211;DHT22;38179;52.756;6.906;2023-04-04T15:36:04;9.70;99.90
52211;DHT22;38179;52.756;6.906;2023-04-04T15:38:30;9.70;99.90
52211;DHT22;38179;52.756;6.906;2023-04-04T15:40:56;9.70;99.90
52211;DHT22;38179;52.756;6.906;2023-04-04T15:43:22;9.60;99.90
52211;DHT22;38179;52.756;6.906;2023-04-04T15:45:48;9.50;99.90
52211;DHT22;38179;52.756;6.906;2023-04-04T15:48:14;9.40;99.90
52211;DHT22;38179;52.756;6.906;2023-04-04T15:50:40;9.40;99.90
52211;DHT22;38179;52.756;6.906;2023-04-04T15:53:06;9.30;99.90
52211;DHT22;38179;52.756;6.906;2023-04-04T15:55:32;9.30;99.90
52211;DHT22;38179;52.756;6.906;2023-04-04T15:57:57;9.20;99.90
52211;DHT22;38179;52.756;6.906;2023-04-04T16:00:26;9.20;99.90